Aeroporto :
LOGIN :

Iscrizione | Disclaimer

   EN    FR    IT 

 










Sommario :    VFR   VFR Marginale   IFR   IFR Intensivo   IFR Molto Intensivo
Visibilità : 
Base nubi : 
>= 8 km
>= 3000ft
5 / 8 km
1000 / 3000 ft
1500m / 5 km
500 / 1000 ft
800 / 1500m
200 / 500 ft
< 800m
< 200 ft
Simboli :   Temporali  Nebbia  Neve Forte  Precipitazioni Forti  Vento > 20 kt
SIGMETs :   Varie  Temporali  Ghiacco  Turbolenza  Onda orograficha  Ceneri Vulcaniche






- Altitudine del aeroporto : -11 ft
- Codice IATA : AMS


EHAM - Amsterdam Schiphol

ULTIMO METAR :
  • 120125Z 19014KT 160V220 6000 SHRAGS FEW013 SCT020CB 05/04 Q0998 BECMG 9999 NSW

METARs OBSOLETI :
  • 120055Z 20015KT 170V230 7000 SHRA FEW012 SCT020CB 05/04 Q0998 BECMG 9999 NSW
  • 120025Z 19018KT 9999 -SHRA FEW017 FEW020CB SCT023 05/04 Q0998 TEMPO 7000 SHRA
  • 112355Z 19016KT 160V220 9999 FEW017 FEW020CB SCT023 05/04 Q0998 TEMPO 21015G25KT 7000 SHRA
  • 112325Z 19015KT 9999 -SHRA FEW014 FEW020CB SCT025 06/04 Q0998 TEMPO 7000
  • 112255Z 19018KT 9999 -SHRAGS FEW020CB SCT025 06/04 Q0998 RESHRA TEMPO 7000

TAF TAF EHAM
Valido dal 12 a 00 ore il 13 a 06 ore UTC


112315Z 1200/1306 20012KT 9999 SCT025
TEMPO 1200/1216 23018G28KT 6000 SHRA SCT022CB BKN025
PROB30
TEMPO 1200/1215 4000 TSRAGS
PROB30 1201/1210 BKN008
TEMPO 1220/1306 21015G25KT 6000 RA SHRA BKN010 FEW015CB



MetMap, La meteo Aeronautica in un colpo d'occhio ! - Copyright ORBIFLY Dicembre 2007 - Disclaimer

ORBIFLY MET'MAP TEAM :

Programmazione e sviluppo : Alexandra Zaïnal
Concezione e sviluppo : Baudouin d'Aumeries
Co-Programmazione e sviluppo : Marc-Olivier Méhu
Supporto tecnico e logistico : Manuel Goepfert
Aiuto per la traduzione : Arnaldo La Scala

Contatto : metmap@orbifly.com




FONTI E CREDITI :

   NOAA